sensor_id;sensor_type;location;lat;lon;timestamp;P1;durP1;ratioP1;P2;durP2;ratioP2
59555;SDS011;45374;52.746;6.304;2023-04-03T00:02:15;2.38;;;1.30;;
59555;SDS011;45374;52.746;6.304;2023-04-03T00:04:40;2.30;;;1.15;;
59555;SDS011;45374;52.746;6.304;2023-04-03T00:07:06;2.75;;;1.25;;
59555;SDS011;45374;52.746;6.304;2023-04-03T00:09:32;3.53;;;1.70;;
59555;SDS011;45374;52.746;6.304;2023-04-03T00:11:57;2.65;;;1.20;;
59555;SDS011;45374;52.746;6.304;2023-04-03T00:14:23;4.50;;;1.65;;
59555;SDS011;45374;52.746;6.304;2023-04-03T00:16:48;4.63;;;1.30;;
59555;SDS011;45374;52.746;6.304;2023-04-03T00:19:14;2.70;;;1.25;;
59555;SDS011;45374;52.746;6.304;2023-04-03T00:21:40;2.67;;;1.42;;
59555;SDS011;45374;52.746;6.304;2023-04-03T00:24:06;4.63;;;1.20;;
59555;SDS011;45374;52.746;6.304;2023-04-03T00:26:31;1.77;;;1.15;;
59555;SDS011;45374;52.746;6.304;2023-04-03T00:28:57;2.42;;;1.20;;
59555;SDS011;45374;52.746;6.304;2023-04-03T00:31:22;3.50;;;1.30;;
59555;SDS011;45374;52.746;6.304;2023-04-03T00:33:48;3.10;;;1.40;;
59555;SDS011;45374;52.746;6.304;2023-04-03T00:36:14;2.58;;;1.05;;
59555;SDS011;45374;52.746;6.304;2023-04-03T00:38:39;2.97;;;1.25;;
59555;SDS011;45374;52.746;6.304;2023-04-03T00:41:05;3.70;;;1.33;;
59555;SDS011;45374;52.746;6.304;2023-04-03T00:43:31;5.90;;;1.50;;
59555;SDS011;45374;52.746;6.304;2023-04-03T00:45:58;4.50;;;1.20;;
59555;SDS011;45374;52.746;6.304;2023-04-03T00:48:26;2.28;;;1.15;;
59555;SDS011;45374;52.746;6.304;2023-04-03T00:50:57;4.72;;;1.65;;
59555;SDS011;45374;52.746;6.304;2023-04-03T00:53:33;4.30;;;1.48;;
59555;SDS011;45374;52.746;6.304;2023-04-03T00:56:08;2.05;;;1.35;;
59555;SDS011;45374;52.746;6.304;2023-04-03T01:01:05;4.15;;;1.25;;
59555;SDS011;45374;52.746;6.304;2023-04-03T01:03:35;4.20;;;1.50;;
59555;SDS011;45374;52.746;6.304;2023-04-03T01:06:01;2.78;;;1.27;;
59555;SDS011;45374;52.746;6.304;2023-04-03T01:08:26;4.20;;;1.50;;
59555;SDS011;45374;52.746;6.304;2023-04-03T01:10:52;4.07;;;1.20;;
59555;SDS011;45374;52.746;6.304;2023-04-03T01:13:19;3.67;;;1.42;;
59555;SDS011;45374;52.746;6.304;2023-04-03T01:15:48;4.72;;;1.70;;
59555;SDS011;45374;52.746;6.304;2023-04-03T01:18:13;4.85;;;1.77;;
59555;SDS011;45374;52.746;6.304;2023-04-03T01:23:32;1.80;;;1.38;;
59555;SDS011;45374;52.746;6.304;2023-04-03T01:25:59;4.63;;;1.65;;
59555;SDS011;45374;52.746;6.304;2023-04-03T01:28:26;4.10;;;1.52;;
59555;SDS011;45374;52.746;6.304;2023-04-03T01:33:49;1.85;;;1.30;;
59555;SDS011;45374;52.746;6.304;2023-04-03T01:36:17;3.08;;;1.65;;
59555;SDS011;45374;52.746;6.304;2023-04-03T01:38:47;4.00;;;1.60;;
59555;SDS011;45374;52.746;6.304;2023-04-03T01:41:13;5.22;;;1.95;;
59555;SDS011;45374;52.746;6.304;2023-04-03T01:43:40;2.63;;;1.50;;
59555;SDS011;45374;52.746;6.304;2023-04-03T01:46:06;5.53;;;1.77;;
59555;SDS011;45374;52.746;6.304;2023-04-03T01:48:32;3.60;;;1.48;;
59555;SDS011;45374;52.746;6.304;2023-04-03T01:50:58;3.40;;;1.77;;
59555;SDS011;45374;52.746;6.304;2023-04-03T01:53:23;3.20;;;1.55;;
59555;SDS011;45374;52.746;6.304;2023-04-03T01:55:49;5.10;;;1.70;;
59555;SDS011;45374;52.746;6.304;2023-04-03T01:58:15;6.70;;;1.90;;
59555;SDS011;45374;52.746;6.304;2023-04-03T02:00:40;5.30;;;1.88;;
59555;SDS011;45374;52.746;6.304;2023-04-03T02:03:06;4.80;;;1.77;;
59555;SDS011;45374;52.746;6.304;2023-04-03T02:05:31;2.88;;;1.50;;
59555;SDS011;45374;52.746;6.304;2023-04-03T02:07:57;5.10;;;2.05;;
59555;SDS011;45374;52.746;6.304;2023-04-03T02:10:23;4.20;;;1.88;;
59555;SDS011;45374;52.746;6.304;2023-04-03T02:12:48;4.72;;;1.85;;
59555;SDS011;45374;52.746;6.304;2023-04-03T02:15:14;9.45;;;1.90;;
59555;SDS011;45374;52.746;6.304;2023-04-03T02:17:40;5.40;;;2.33;;
59555;SDS011;45374;52.746;6.304;2023-04-03T02:20:05;3.97;;;1.80;;
59555;SDS011;45374;52.746;6.304;2023-04-03T02:22:31;5.32;;;2.10;;
59555;SDS011;45374;52.746;6.304;2023-04-03T02:24:57;5.70;;;2.15;;
59555;SDS011;45374;52.746;6.304;2023-04-03T02:27:23;4.75;;;2.38;;
59555;SDS011;45374;52.746;6.304;2023-04-03T02:29:49;5.82;;;2.28;;
59555;SDS011;45374;52.746;6.304;2023-04-03T02:32:14;5.60;;;2.15;;
59555;SDS011;45374;52.746;6.304;2023-04-03T02:34:40;7.53;;;2.35;;
59555;SDS011;45374;52.746;6.304;2023-04-03T02:37:06;4.70;;;1.80;;
59555;SDS011;45374;52.746;6.304;2023-04-03T02:39:31;5.82;;;2.53;;
59555;SDS011;45374;52.746;6.304;2023-04-03T02:41:57;5.40;;;2.03;;
59555;SDS011;45374;52.746;6.304;2023-04-03T02:44:22;4.40;;;2.13;;
59555;SDS011;45374;52.746;6.304;2023-04-03T02:46:48;4.65;;;2.15;;
59555;SDS011;45374;52.746;6.304;2023-04-03T02:49:14;5.53;;;2.45;;
59555;SDS011;45374;52.746;6.304;2023-04-03T02:51:40;6.13;;;2.25;;
59555;SDS011;45374;52.746;6.304;2023-04-03T02:54:06;4.95;;;2.00;;
59555;SDS011;45374;52.746;6.304;2023-04-03T02:56:32;5.45;;;2.38;;
59555;SDS011;45374;52.746;6.304;2023-04-03T02:58:57;3.75;;;2.20;;
59555;SDS011;45374;52.746;6.304;2023-04-03T03:01:23;5.15;;;2.00;;
59555;SDS011;45374;52.746;6.304;2023-04-03T03:03:49;5.60;;;2.38;;
59555;SDS011;45374;52.746;6.304;2023-04-03T03:06:15;7.53;;;2.22;;
59555;SDS011;45374;52.746;6.304;2023-04-03T03:08:42;5.70;;;2.45;;
59555;SDS011;45374;52.746;6.304;2023-04-03T03:11:08;7.22;;;2.30;;
59555;SDS011;45374;52.746;6.304;2023-04-03T03:13:34;4.57;;;2.33;;
59555;SDS011;45374;52.746;6.304;2023-04-03T03:16:00;7.82;;;2.70;;
59555;SDS011;45374;52.746;6.304;2023-04-03T03:18:26;4.68;;;2.10;;
59555;SDS011;45374;52.746;6.304;2023-04-03T03:20:52;4.82;;;2.60;;
59555;SDS011;45374;52.746;6.304;2023-04-03T03:23:19;10.80;;;2.58;;
59555;SDS011;45374;52.746;6.304;2023-04-03T03:25:45;5.22;;;2.53;;
59555;SDS011;45374;52.746;6.304;2023-04-03T03:28:11;6.70;;;2.38;;
59555;SDS011;45374;52.746;6.304;2023-04-03T03:30:36;7.38;;;2.63;;
59555;SDS011;45374;52.746;6.304;2023-04-03T03:33:02;5.63;;;2.28;;
59555;SDS011;45374;52.746;6.304;2023-04-03T03:35:28;6.70;;;3.10;;
59555;SDS011;45374;52.746;6.304;2023-04-03T03:37:53;5.22;;;2.65;;
59555;SDS011;45374;52.746;6.304;2023-04-03T03:40:19;4.63;;;2.05;;
59555;SDS011;45374;52.746;6.304;2023-04-03T03:42:45;7.60;;;2.72;;
59555;SDS011;45374;52.746;6.304;2023-04-03T03:45:11;6.13;;;2.47;;
59555;SDS011;45374;52.746;6.304;2023-04-03T03:47:37;6.93;;;2.25;;
59555;SDS011;45374;52.746;6.304;2023-04-03T03:50:02;7.70;;;2.13;;
59555;SDS011;45374;52.746;6.304;2023-04-03T03:52:28;5.20;;;2.38;;
59555;SDS011;45374;52.746;6.304;2023-04-03T03:54:55;5.00;;;2.15;;
59555;SDS011;45374;52.746;6.304;2023-04-03T03:57:21;6.28;;;2.17;;
59555;SDS011;45374;52.746;6.304;2023-04-03T03:59:47;9.23;;;3.13;;
59555;SDS011;45374;52.746;6.304;2023-04-03T04:02:13;6.70;;;2.00;;
59555;SDS011;45374;52.746;6.304;2023-04-03T04:04:39;6.60;;;2.83;;
59555;SDS011;45374;52.746;6.304;2023-04-03T04:07:05;4.90;;;2.22;;
59555;SDS011;45374;52.746;6.304;2023-04-03T04:09:31;5.78;;;2.15;;
59555;SDS011;45374;52.746;6.304;2023-04-03T04:11:56;4.95;;;2.38;;
59555;SDS011;45374;52.746;6.304;2023-04-03T04:14:22;6.60;;;2.50;;
59555;SDS011;45374;52.746;6.304;2023-04-03T04:16:48;4.05;;;2.00;;
59555;SDS011;45374;52.746;6.304;2023-04-03T04:19:16;7.13;;;2.28;;
59555;SDS011;45374;52.746;6.304;2023-04-03T04:21:42;7.97;;;2.30;;
59555;SDS011;45374;52.746;6.304;2023-04-03T04:24:08;6.43;;;2.30;;
59555;SDS011;45374;52.746;6.304;2023-04-03T04:26:34;6.30;;;2.55;;
59555;SDS011;45374;52.746;6.304;2023-04-03T04:28:59;8.18;;;2.30;;
59555;SDS011;45374;52.746;6.304;2023-04-03T04:31:25;6.05;;;2.38;;
59555;SDS011;45374;52.746;6.304;2023-04-03T04:33:50;5.72;;;2.13;;
59555;SDS011;45374;52.746;6.304;2023-04-03T04:36:16;5.20;;;3.08;;
59555;SDS011;45374;52.746;6.304;2023-04-03T04:38:42;5.78;;;2.30;;
59555;SDS011;45374;52.746;6.304;2023-04-03T04:41:07;4.80;;;2.30;;
59555;SDS011;45374;52.746;6.304;2023-04-03T04:43:33;5.50;;;2.50;;
59555;SDS011;45374;52.746;6.304;2023-04-03T04:48:31;4.82;;;2.40;;
59555;SDS011;45374;52.746;6.304;2023-04-03T04:50:57;7.60;;;3.03;;
59555;SDS011;45374;52.746;6.304;2023-04-03T04:53:23;6.45;;;2.70;;
59555;SDS011;45374;52.746;6.304;2023-04-03T04:55:48;5.05;;;2.40;;
59555;SDS011;45374;52.746;6.304;2023-04-03T04:58:14;7.38;;;2.40;;
59555;SDS011;45374;52.746;6.304;2023-04-03T05:00:40;6.38;;;2.85;;
59555;SDS011;45374;52.746;6.304;2023-04-03T05:03:05;6.88;;;2.20;;
59555;SDS011;45374;52.746;6.304;2023-04-03T05:05:31;5.90;;;2.33;;
59555;SDS011;45374;52.746;6.304;2023-04-03T05:07:56;6.80;;;2.80;;
59555;SDS011;45374;52.746;6.304;2023-04-03T05:10:22;5.13;;;2.28;;
59555;SDS011;45374;52.746;6.304;2023-04-03T05:12:47;8.15;;;2.90;;
59555;SDS011;45374;52.746;6.304;2023-04-03T05:15:13;5.00;;;2.50;;
59555;SDS011;45374;52.746;6.304;2023-04-03T05:17:39;5.72;;;2.42;;
59555;SDS011;45374;52.746;6.304;2023-04-03T05:20:04;4.65;;;2.35;;
59555;SDS011;45374;52.746;6.304;2023-04-03T05:22:31;6.53;;;2.40;;
59555;SDS011;45374;52.746;6.304;2023-04-03T05:24:56;6.65;;;2.80;;
59555;SDS011;45374;52.746;6.304;2023-04-03T05:27:22;6.20;;;2.50;;
59555;SDS011;45374;52.746;6.304;2023-04-03T05:29:49;13.52;;;2.70;;
59555;SDS011;45374;52.746;6.304;2023-04-03T05:32:15;6.82;;;2.70;;
59555;SDS011;45374;52.746;6.304;2023-04-03T05:34:41;7.30;;;2.88;;
59555;SDS011;45374;52.746;6.304;2023-04-03T05:37:06;6.88;;;2.90;;
59555;SDS011;45374;52.746;6.304;2023-04-03T05:39:32;11.05;;;3.15;;
59555;SDS011;45374;52.746;6.304;2023-04-03T05:41:58;7.65;;;3.30;;
59555;SDS011;45374;52.746;6.304;2023-04-03T05:44:23;7.07;;;3.17;;
59555;SDS011;45374;52.746;6.304;2023-04-03T05:46:49;9.15;;;3.10;;
59555;SDS011;45374;52.746;6.304;2023-04-03T05:49:14;5.85;;;2.60;;
59555;SDS011;45374;52.746;6.304;2023-04-03T05:51:40;7.70;;;3.55;;
59555;SDS011;45374;52.746;6.304;2023-04-03T05:54:08;5.72;;;2.50;;
59555;SDS011;45374;52.746;6.304;2023-04-03T05:56:39;8.10;;;2.70;;
59555;SDS011;45374;52.746;6.304;2023-04-03T05:59:04;7.78;;;2.80;;
59555;SDS011;45374;52.746;6.304;2023-04-03T06:01:30;5.65;;;2.40;;
59555;SDS011;45374;52.746;6.304;2023-04-03T06:03:55;5.43;;;2.85;;
59555;SDS011;45374;52.746;6.304;2023-04-03T06:06:23;8.13;;;3.60;;
59555;SDS011;45374;52.746;6.304;2023-04-03T06:08:49;7.00;;;2.63;;
59555;SDS011;45374;52.746;6.304;2023-04-03T06:11:15;8.85;;;2.92;;
59555;SDS011;45374;52.746;6.304;2023-04-03T06:13:41;6.95;;;3.00;;
59555;SDS011;45374;52.746;6.304;2023-04-03T06:16:08;6.07;;;3.00;;
59555;SDS011;45374;52.746;6.304;2023-04-03T06:18:37;9.10;;;2.80;;
59555;SDS011;45374;52.746;6.304;2023-04-03T06:21:02;9.90;;;2.83;;
59555;SDS011;45374;52.746;6.304;2023-04-03T06:23:29;5.45;;;2.38;;
59555;SDS011;45374;52.746;6.304;2023-04-03T06:25:55;7.78;;;2.70;;
59555;SDS011;45374;52.746;6.304;2023-04-03T06:28:20;8.50;;;2.90;;
59555;SDS011;45374;52.746;6.304;2023-04-03T06:30:46;5.65;;;2.25;;
59555;SDS011;45374;52.746;6.304;2023-04-03T06:33:11;8.98;;;2.67;;
59555;SDS011;45374;52.746;6.304;2023-04-03T06:35:37;7.45;;;2.35;;
59555;SDS011;45374;52.746;6.304;2023-04-03T06:38:03;6.32;;;2.47;;
59555;SDS011;45374;52.746;6.304;2023-04-03T06:40:34;7.00;;;2.55;;
59555;SDS011;45374;52.746;6.304;2023-04-03T06:43:00;10.75;;;2.65;;
59555;SDS011;45374;52.746;6.304;2023-04-03T06:45:26;4.43;;;2.40;;
59555;SDS011;45374;52.746;6.304;2023-04-03T06:47:52;8.50;;;2.47;;
59555;SDS011;45374;52.746;6.304;2023-04-03T06:50:18;5.18;;;2.20;;
59555;SDS011;45374;52.746;6.304;2023-04-03T06:52:44;7.05;;;2.58;;
59555;SDS011;45374;52.746;6.304;2023-04-03T06:55:09;9.63;;;2.40;;
59555;SDS011;45374;52.746;6.304;2023-04-03T06:57:36;5.28;;;2.28;;
59555;SDS011;45374;52.746;6.304;2023-04-03T07:00:03;5.25;;;2.15;;
59555;SDS011;45374;52.746;6.304;2023-04-03T07:02:29;4.95;;;2.30;;
59555;SDS011;45374;52.746;6.304;2023-04-03T07:04:55;6.55;;;2.20;;
59555;SDS011;45374;52.746;6.304;2023-04-03T07:07:21;7.22;;;2.15;;
59555;SDS011;45374;52.746;6.304;2023-04-03T07:09:46;7.30;;;2.38;;
59555;SDS011;45374;52.746;6.304;2023-04-03T07:12:13;8.05;;;2.50;;
59555;SDS011;45374;52.746;6.304;2023-04-03T07:14:38;7.65;;;2.03;;
59555;SDS011;45374;52.746;6.304;2023-04-03T07:17:04;6.90;;;2.80;;
59555;SDS011;45374;52.746;6.304;2023-04-03T07:19:29;7.18;;;2.00;;
59555;SDS011;45374;52.746;6.304;2023-04-03T07:21:56;4.75;;;1.70;;
59555;SDS011;45374;52.746;6.304;2023-04-03T07:24:22;4.70;;;1.40;;
59555;SDS011;45374;52.746;6.304;2023-04-03T07:26:50;9.02;;;1.98;;
59555;SDS011;45374;52.746;6.304;2023-04-03T07:29:16;6.30;;;1.90;;
59555;SDS011;45374;52.746;6.304;2023-04-03T07:31:42;5.72;;;1.90;;
59555;SDS011;45374;52.746;6.304;2023-04-03T07:34:09;6.45;;;1.90;;
59555;SDS011;45374;52.746;6.304;2023-04-03T07:36:35;6.15;;;1.77;;
59555;SDS011;45374;52.746;6.304;2023-04-03T07:39:01;4.60;;;1.70;;
59555;SDS011;45374;52.746;6.304;2023-04-03T07:41:26;4.57;;;1.40;;
59555;SDS011;45374;52.746;6.304;2023-04-03T07:43:53;4.63;;;1.90;;
59555;SDS011;45374;52.746;6.304;2023-04-03T07:46:19;5.05;;;1.63;;
59555;SDS011;45374;52.746;6.304;2023-04-03T07:48:45;4.43;;;1.92;;
59555;SDS011;45374;52.746;6.304;2023-04-03T07:51:11;4.15;;;1.67;;
59555;SDS011;45374;52.746;6.304;2023-04-03T07:53:37;4.68;;;1.65;;
59555;SDS011;45374;52.746;6.304;2023-04-03T07:56:03;5.20;;;1.75;;
59555;SDS011;45374;52.746;6.304;2023-04-03T07:58:29;6.55;;;1.50;;
59555;SDS011;45374;52.746;6.304;2023-04-03T08:00:55;4.75;;;1.40;;
59555;SDS011;45374;52.746;6.304;2023-04-03T08:03:21;4.72;;;1.35;;
59555;SDS011;45374;52.746;6.304;2023-04-03T08:05:48;3.83;;;1.40;;
59555;SDS011;45374;52.746;6.304;2023-04-03T08:08:19;4.20;;;1.45;;
59555;SDS011;45374;52.746;6.304;2023-04-03T08:10:49;6.38;;;1.52;;
59555;SDS011;45374;52.746;6.304;2023-04-03T08:13:16;6.75;;;1.40;;
59555;SDS011;45374;52.746;6.304;2023-04-03T08:15:41;4.32;;;1.48;;
59555;SDS011;45374;52.746;6.304;2023-04-03T08:18:07;3.47;;;1.50;;
59555;SDS011;45374;52.746;6.304;2023-04-03T08:20:32;2.80;;;1.10;;
59555;SDS011;45374;52.746;6.304;2023-04-03T08:22:58;4.22;;;1.25;;
59555;SDS011;45374;52.746;6.304;2023-04-03T08:25:23;4.80;;;1.20;;
59555;SDS011;45374;52.746;6.304;2023-04-03T08:27:49;3.63;;;1.17;;
59555;SDS011;45374;52.746;6.304;2023-04-03T08:30:15;4.75;;;1.33;;
59555;SDS011;45374;52.746;6.304;2023-04-03T08:32:41;2.95;;;1.30;;
59555;SDS011;45374;52.746;6.304;2023-04-03T08:35:08;4.30;;;1.55;;
59555;SDS011;45374;52.746;6.304;2023-04-03T08:37:38;2.80;;;1.23;;
59555;SDS011;45374;52.746;6.304;2023-04-03T08:40:05;3.40;;;1.20;;
59555;SDS011;45374;52.746;6.304;2023-04-03T08:45:27;3.95;;;1.33;;
59555;SDS011;45374;52.746;6.304;2023-04-03T08:48:17;3.53;;;1.25;;
59555;SDS011;45374;52.746;6.304;2023-04-03T08:50:46;5.07;;;1.60;;
59555;SDS011;45374;52.746;6.304;2023-04-03T08:53:16;3.95;;;1.10;;
59555;SDS011;45374;52.746;6.304;2023-04-03T08:55:46;3.55;;;1.50;;
59555;SDS011;45374;52.746;6.304;2023-04-03T09:00:47;5.30;;;1.20;;
59555;SDS011;45374;52.746;6.304;2023-04-03T09:03:17;5.93;;;1.45;;
59555;SDS011;45374;52.746;6.304;2023-04-03T09:05:55;5.35;;;1.60;;
59555;SDS011;45374;52.746;6.304;2023-04-03T09:08:27;3.38;;;1.00;;
59555;SDS011;45374;52.746;6.304;2023-04-03T09:11:40;3.53;;;1.20;;
59555;SDS011;45374;52.746;6.304;2023-04-03T09:17:00;4.60;;;1.02;;
59555;SDS011;45374;52.746;6.304;2023-04-03T09:19:38;2.17;;;0.93;;
59555;SDS011;45374;52.746;6.304;2023-04-03T09:22:20;1.92;;;0.73;;
59555;SDS011;45374;52.746;6.304;2023-04-03T09:24:55;3.13;;;1.13;;
59555;SDS011;45374;52.746;6.304;2023-04-03T09:27:25;4.07;;;0.88;;
59555;SDS011;45374;52.746;6.304;2023-04-03T09:29:52;3.05;;;1.08;;
59555;SDS011;45374;52.746;6.304;2023-04-03T09:34:57;1.85;;;0.75;;
59555;SDS011;45374;52.746;6.304;2023-04-03T09:37:41;2.00;;;0.80;;
59555;SDS011;45374;52.746;6.304;2023-04-03T09:40:28;3.95;;;1.00;;
59555;SDS011;45374;52.746;6.304;2023-04-03T09:42:57;3.80;;;0.95;;
59555;SDS011;45374;52.746;6.304;2023-04-03T09:45:30;2.50;;;0.80;;
59555;SDS011;45374;52.746;6.304;2023-04-03T09:50:38;4.30;;;0.85;;
59555;SDS011;45374;52.746;6.304;2023-04-03T09:53:25;3.03;;;1.00;;
59555;SDS011;45374;52.746;6.304;2023-04-03T09:55:54;3.55;;;0.90;;
59555;SDS011;45374;52.746;6.304;2023-04-03T09:58:27;3.22;;;0.80;;
59555;SDS011;45374;52.746;6.304;2023-04-03T10:00:57;3.78;;;1.10;;
59555;SDS011;45374;52.746;6.304;2023-04-03T10:03:26;4.25;;;0.82;;
59555;SDS011;45374;52.746;6.304;2023-04-03T10:05:54;1.70;;;0.90;;
59555;SDS011;45374;52.746;6.304;2023-04-03T10:11:08;2.88;;;0.77;;
59555;SDS011;45374;52.746;6.304;2023-04-03T10:16:20;2.40;;;0.80;;
59555;SDS011;45374;52.746;6.304;2023-04-03T10:18:54;2.35;;;0.75;;
59555;SDS011;45374;52.746;6.304;2023-04-03T10:21:29;1.80;;;0.80;;
59555;SDS011;45374;52.746;6.304;2023-04-03T10:24:11;4.20;;;1.00;;
59555;SDS011;45374;52.746;6.304;2023-04-03T10:27:10;1.40;;;0.65;;
59555;SDS011;45374;52.746;6.304;2023-04-03T10:35:35;3.58;;;0.90;;
59555;SDS011;45374;52.746;6.304;2023-04-03T10:43:58;1.58;;;0.80;;
59555;SDS011;45374;52.746;6.304;2023-04-03T10:46:51;3.33;;;0.50;;
59555;SDS011;45374;52.746;6.304;2023-04-03T10:52:02;1.63;;;0.70;;
59555;SDS011;45374;52.746;6.304;2023-04-03T10:55:02;2.25;;;0.85;;
59555;SDS011;45374;52.746;6.304;2023-04-03T10:57:57;2.00;;;0.80;;
59555;SDS011;45374;52.746;6.304;2023-04-03T11:00:35;3.45;;;0.85;;
59555;SDS011;45374;52.746;6.304;2023-04-03T11:03:10;2.95;;;0.88;;
59555;SDS011;45374;52.746;6.304;2023-04-03T11:05:45;2.72;;;0.88;;
59555;SDS011;45374;52.746;6.304;2023-04-03T11:11:06;1.48;;;0.60;;
59555;SDS011;45374;52.746;6.304;2023-04-03T11:13:46;1.40;;;0.80;;
59555;SDS011;45374;52.746;6.304;2023-04-03T11:16:23;2.90;;;0.80;;
59555;SDS011;45374;52.746;6.304;2023-04-03T11:18:53;2.65;;;0.80;;
59555;SDS011;45374;52.746;6.304;2023-04-03T11:21:28;3.92;;;1.00;;
59555;SDS011;45374;52.746;6.304;2023-04-03T11:23:59;2.17;;;0.80;;
59555;SDS011;45374;52.746;6.304;2023-04-03T11:26:31;2.55;;;1.05;;
59555;SDS011;45374;52.746;6.304;2023-04-03T11:29:05;1.98;;;0.90;;
59555;SDS011;45374;52.746;6.304;2023-04-03T11:31:59;2.60;;;0.90;;
59555;SDS011;45374;52.746;6.304;2023-04-03T11:34:45;2.85;;;0.80;;
59555;SDS011;45374;52.746;6.304;2023-04-03T11:40:02;2.03;;;0.70;;
59555;SDS011;45374;52.746;6.304;2023-04-03T11:42:34;3.95;;;1.20;;
59555;SDS011;45374;52.746;6.304;2023-04-03T11:47:51;2.35;;;0.95;;
59555;SDS011;45374;52.746;6.304;2023-04-03T11:52:57;2.88;;;0.90;;
59555;SDS011;45374;52.746;6.304;2023-04-03T12:14:20;5.07;;;1.00;;
59555;SDS011;45374;52.746;6.304;2023-04-03T12:16:29;3.42;;;1.00;;
59555;SDS011;45374;52.746;6.304;2023-04-03T12:31:43;3.17;;;0.98;;
59555;SDS011;45374;52.746;6.304;2023-04-03T12:34:35;3.53;;;1.10;;
59555;SDS011;45374;52.746;6.304;2023-04-03T12:37:39;3.95;;;1.35;;
59555;SDS011;45374;52.746;6.304;2023-04-03T12:46:19;3.22;;;1.20;;
59555;SDS011;45374;52.746;6.304;2023-04-03T12:48:52;4.43;;;1.30;;
59555;SDS011;45374;52.746;6.304;2023-04-03T12:53:57;3.17;;;1.20;;
59555;SDS011;45374;52.746;6.304;2023-04-03T12:56:27;2.22;;;1.10;;
59555;SDS011;45374;52.746;6.304;2023-04-03T12:58:55;2.95;;;1.20;;
59555;SDS011;45374;52.746;6.304;2023-04-03T13:01:42;3.13;;;1.25;;
59555;SDS011;45374;52.746;6.304;2023-04-03T13:04:09;4.40;;;1.40;;
59555;SDS011;45374;52.746;6.304;2023-04-03T13:06:40;2.65;;;1.20;;
59555;SDS011;45374;52.746;6.304;2023-04-03T13:11:47;3.42;;;1.38;;
59555;SDS011;45374;52.746;6.304;2023-04-03T13:14:21;2.17;;;0.95;;
59555;SDS011;45374;52.746;6.304;2023-04-03T13:16:58;3.45;;;1.20;;
59555;SDS011;45374;52.746;6.304;2023-04-03T13:19:27;2.10;;;1.00;;
59555;SDS011;45374;52.746;6.304;2023-04-03T13:21:58;5.22;;;1.15;;
59555;SDS011;45374;52.746;6.304;2023-04-03T13:24:28;2.30;;;1.10;;
59555;SDS011;45374;52.746;6.304;2023-04-03T13:26:55;3.20;;;1.35;;
59555;SDS011;45374;52.746;6.304;2023-04-03T13:29:25;2.92;;;1.00;;
59555;SDS011;45374;52.746;6.304;2023-04-03T13:31:56;3.45;;;1.27;;
59555;SDS011;45374;52.746;6.304;2023-04-03T13:34:23;2.72;;;1.33;;
59555;SDS011;45374;52.746;6.304;2023-04-03T13:41:49;2.33;;;1.15;;
59555;SDS011;45374;52.746;6.304;2023-04-03T13:49:17;3.60;;;1.38;;
59555;SDS011;45374;52.746;6.304;2023-04-03T13:51:45;3.15;;;1.45;;
59555;SDS011;45374;52.746;6.304;2023-04-03T13:54:35;3.60;;;1.38;;
59555;SDS011;45374;52.746;6.304;2023-04-03T13:57:02;3.13;;;1.30;;
59555;SDS011;45374;52.746;6.304;2023-04-03T13:59:36;2.42;;;1.10;;
59555;SDS011;45374;52.746;6.304;2023-04-03T14:04:31;4.20;;;1.30;;
59555;SDS011;45374;52.746;6.304;2023-04-03T14:07:10;2.85;;;1.20;;
59555;SDS011;45374;52.746;6.304;2023-04-03T14:09:36;3.28;;;1.50;;
59555;SDS011;45374;52.746;6.304;2023-04-03T14:12:05;4.03;;;1.60;;
59555;SDS011;45374;52.746;6.304;2023-04-03T14:14:33;3.83;;;1.35;;
59555;SDS011;45374;52.746;6.304;2023-04-03T14:17:02;2.90;;;1.30;;
59555;SDS011;45374;52.746;6.304;2023-04-03T14:19:37;2.53;;;1.20;;
59555;SDS011;45374;52.746;6.304;2023-04-03T14:22:10;2.25;;;1.50;;
59555;SDS011;45374;52.746;6.304;2023-04-03T14:24:42;3.95;;;1.40;;
59555;SDS011;45374;52.746;6.304;2023-04-03T14:27:17;3.22;;;1.38;;
59555;SDS011;45374;52.746;6.304;2023-04-03T14:29:52;2.25;;;1.17;;
59555;SDS011;45374;52.746;6.304;2023-04-03T14:32:19;3.90;;;1.50;;
59555;SDS011;45374;52.746;6.304;2023-04-03T14:34:47;5.10;;;1.63;;
59555;SDS011;45374;52.746;6.304;2023-04-03T14:37:19;3.53;;;1.40;;
59555;SDS011;45374;52.746;6.304;2023-04-03T14:42:14;3.85;;;1.48;;
59555;SDS011;45374;52.746;6.304;2023-04-03T14:44:42;3.03;;;1.73;;
59555;SDS011;45374;52.746;6.304;2023-04-03T14:47:09;4.30;;;1.52;;
59555;SDS011;45374;52.746;6.304;2023-04-03T14:49:36;4.95;;;1.58;;
59555;SDS011;45374;52.746;6.304;2023-04-03T14:52:02;2.40;;;1.50;;
59555;SDS011;45374;52.746;6.304;2023-04-03T14:54:28;4.22;;;1.58;;
59555;SDS011;45374;52.746;6.304;2023-04-03T14:56:54;5.93;;;1.77;;
59555;SDS011;45374;52.746;6.304;2023-04-03T14:59:21;3.00;;;1.52;;
59555;SDS011;45374;52.746;6.304;2023-04-03T15:01:47;3.92;;;1.48;;
59555;SDS011;45374;52.746;6.304;2023-04-03T15:04:17;3.40;;;1.50;;
59555;SDS011;45374;52.746;6.304;2023-04-03T15:06:44;2.90;;;1.40;;
59555;SDS011;45374;52.746;6.304;2023-04-03T15:09:21;4.00;;;1.55;;
59555;SDS011;45374;52.746;6.304;2023-04-03T15:11:48;4.03;;;1.55;;
59555;SDS011;45374;52.746;6.304;2023-04-03T15:14:15;2.38;;;1.30;;
59555;SDS011;45374;52.746;6.304;2023-04-03T15:16:41;3.40;;;1.63;;
59555;SDS011;45374;52.746;6.304;2023-04-03T15:19:06;4.90;;;1.63;;
59555;SDS011;45374;52.746;6.304;2023-04-03T15:21:32;3.13;;;1.48;;
59555;SDS011;45374;52.746;6.304;2023-04-03T15:24:08;2.90;;;1.67;;
59555;SDS011;45374;52.746;6.304;2023-04-03T15:26:35;3.95;;;1.90;;
59555;SDS011;45374;52.746;6.304;2023-04-03T15:29:00;3.85;;;1.40;;
59555;SDS011;45374;52.746;6.304;2023-04-03T15:31:27;3.63;;;1.60;;
59555;SDS011;45374;52.746;6.304;2023-04-03T15:33:52;5.25;;;1.60;;
59555;SDS011;45374;52.746;6.304;2023-04-03T15:36:18;2.97;;;1.65;;
59555;SDS011;45374;52.746;6.304;2023-04-03T15:38:43;4.53;;;1.80;;
59555;SDS011;45374;52.746;6.304;2023-04-03T15:41:09;4.97;;;1.80;;
59555;SDS011;45374;52.746;6.304;2023-04-03T15:43:34;4.32;;;1.55;;
59555;SDS011;45374;52.746;6.304;2023-04-03T15:46:00;3.05;;;2.00;;
59555;SDS011;45374;52.746;6.304;2023-04-03T15:48:26;3.85;;;1.98;;
59555;SDS011;45374;52.746;6.304;2023-04-03T15:50:53;3.97;;;2.13;;
59555;SDS011;45374;52.746;6.304;2023-04-03T15:53:19;5.75;;;2.75;;
59555;SDS011;45374;52.746;6.304;2023-04-03T15:55:44;5.50;;;2.83;;
59555;SDS011;45374;52.746;6.304;2023-04-03T15:58:10;4.63;;;2.67;;
59555;SDS011;45374;52.746;6.304;2023-04-03T16:00:36;6.68;;;2.13;;
59555;SDS011;45374;52.746;6.304;2023-04-03T16:03:06;7.82;;;3.38;;
59555;SDS011;45374;52.746;6.304;2023-04-03T16:05:35;6.18;;;2.95;;
59555;SDS011;45374;52.746;6.304;2023-04-03T16:08:01;3.67;;;1.60;;
59555;SDS011;45374;52.746;6.304;2023-04-03T16:10:27;4.63;;;2.67;;
59555;SDS011;45374;52.746;6.304;2023-04-03T16:12:52;3.42;;;1.60;;
59555;SDS011;45374;52.746;6.304;2023-04-03T16:15:18;6.80;;;2.30;;
59555;SDS011;45374;52.746;6.304;2023-04-03T16:17:44;3.85;;;2.28;;
59555;SDS011;45374;52.746;6.304;2023-04-03T16:20:10;5.03;;;2.42;;
59555;SDS011;45374;52.746;6.304;2023-04-03T16:22:37;5.97;;;2.28;;
59555;SDS011;45374;52.746;6.304;2023-04-03T16:25:05;6.45;;;2.40;;
59555;SDS011;45374;52.746;6.304;2023-04-03T16:27:31;4.65;;;2.42;;
59555;SDS011;45374;52.746;6.304;2023-04-03T16:29:57;3.75;;;1.63;;
59555;SDS011;45374;52.746;6.304;2023-04-03T16:32:23;4.05;;;2.63;;
59555;SDS011;45374;52.746;6.304;2023-04-03T16:34:51;3.45;;;2.05;;
59555;SDS011;45374;52.746;6.304;2023-04-03T16:37:17;4.47;;;2.30;;
59555;SDS011;45374;52.746;6.304;2023-04-03T16:39:42;4.25;;;2.05;;
59555;SDS011;45374;52.746;6.304;2023-04-03T16:42:08;3.28;;;1.55;;
59555;SDS011;45374;52.746;6.304;2023-04-03T16:44:35;2.40;;;1.67;;
59555;SDS011;45374;52.746;6.304;2023-04-03T16:47:01;5.50;;;2.28;;
59555;SDS011;45374;52.746;6.304;2023-04-03T16:49:26;6.85;;;3.17;;